• Join FlightAware (Why Join?)
  • Login
  • US Flag 
06:57AM EDT


 

Airport Tracker/Info


-or-


 

Live Flight TrackerFlight Track Log ✈ CCA1557 ✈ 04-May-2012 ✈ ZBAA / PEK - ZSSS / SHA

Flight Track Log - Related Links

Times and Time Zones

All times are in EDT time to prevent confusion due to time zone crossing. See the CCA1557 flight status page for this flight to view local times or setup timezone preferences in your user account.

Time Position Orientation Groundspeed Altitude Reporting Facility
EDT Latitude Longitude Course Direction KTS MPH feet Rate Location/Type
11:53PM 40.0582 116.5979 155° Southeast  Level Estimated
11:54PM 39.9703 116.6511 155° Southeast  Level Estimated
11:55PM 39.8824 116.7042 155° Southeast  Level Estimated
11:56PM 39.7945 116.7572 155° Southeast  Level Estimated
11:57PM 39.7066 116.8100 155° Southeast  Level Estimated
11:58PM 39.6186 116.8627 155° Southeast  Level Estimated
11:59PM 39.5306 116.9153 155° Southeast  Level Estimated
12:00AM 39.4426 116.9677 155° Southeast  Level Estimated
12:01AM 39.3546 117.0200 155° Southeast  Level Estimated
12:02AM 39.2665 117.0722 155° Southeast  Level Estimated
12:03AM 39.1784 117.1242 155° Southeast  Level Estimated
12:04AM 39.0903 117.1761 155° Southeast  Level Estimated
12:05AM 39.0022 117.2279 155° Southeast  Level Estimated
12:06AM 38.9141 117.2796 156° South  Level Estimated
12:07AM 38.8259 117.3311 156° South  Level Estimated
12:08AM 38.7377 117.3825 156° South  Level Estimated
12:09AM 38.6495 117.4337 156° South  Level Estimated
12:10AM 38.5612 117.4849 156° South  Level Estimated
12:11AM 38.4730 117.5359 156° South  Level Estimated
12:12AM 38.3847 117.5868 156° South  Level Estimated
12:13AM 38.2964 117.6375 156° South  Level Estimated
12:14AM 38.2080 117.6882 156° South  Level Estimated
12:15AM 38.1197 117.7387 156° South  Level Estimated
12:16AM 38.0313 117.7891 156° South  Level Estimated
12:17AM 37.9429 117.8394 156° South  Level Estimated
12:18AM 37.8545 117.8895 156° South  Level Estimated
12:19AM 37.7661 117.9396 156° South  Level Estimated
12:20AM 37.6777 117.9895 156° South  Level Estimated
12:21AM 37.5892 118.0393 156° South  Level Estimated
12:22AM 37.5007 118.0890 156° South  Level Estimated
12:23AM 37.4122 118.1385 156° South  Level Estimated
12:24AM 37.3236 118.1880 156° South  Level Estimated
12:25AM 37.2351 118.2373 156° South  Level Estimated
12:26AM 37.1465 118.2865 156° South  Level Estimated
12:27AM 37.0579 118.3356 156° South  Level Estimated
12:28AM 36.9692 118.3846 156° South  Level Estimated
12:29AM 36.8806 118.4334 156° South  Level Estimated
12:30AM 36.7920 118.4822 156° South  Level Estimated
12:31AM 36.7033 118.5308 156° South  Level Estimated
12:32AM 36.6146 118.5794 156° South  Level Estimated
12:33AM 36.5258 118.6278 156° South  Level Estimated
12:34AM 36.4371 118.6761 156° South  Level Estimated
12:35AM 36.3484 118.7243 156° South  Level Estimated
12:36AM 36.2596 118.7724 156° South  Level Estimated
12:37AM 36.1708 118.8203 156° South  Level Estimated
12:38AM 36.0820 118.8682 156° South  Level Estimated
12:39AM 35.9931 118.9160 157° South  Level Estimated
12:40AM 35.9043 118.9636 157° South  Level Estimated
12:41AM 35.8154 119.0112 157° South  Level Estimated
12:42AM 35.7265 119.0586 157° South  Level Estimated
12:43AM 35.6376 119.1059 157° South  Level Estimated
12:44AM 35.5487 119.1532 157° South  Level Estimated
12:45AM 35.4597 119.2003 157° South  Level Estimated
12:46AM 35.3707 119.2473 157° South  Level Estimated
12:47AM 35.2818 119.2942 157° South  Level Estimated
12:48AM 35.1928 119.3410 157° South  Level Estimated
12:49AM 35.1037 119.3877 157° South  Level Estimated
12:50AM 35.0147 119.4343 157° South  Level Estimated
12:51AM 34.9257 119.4809 157° South  Level Estimated
12:52AM 34.8366 119.5273 157° South  Level Estimated
12:53AM 34.7475 119.5736 157° South  Level Estimated
12:54AM 34.6584 119.6198 157° South  Level Estimated
12:55AM 34.5692 119.6659 157° South  Level Estimated
12:56AM 34.4801 119.7119 157° South  Level Estimated
12:57AM 34.3909 119.7578 157° South  Level Estimated
12:58AM 34.3018 119.8036 157° South  Level Estimated
12:59AM 34.2126 119.8493 157° South  Level Estimated
01:00AM 34.1234 119.8950 157° South  Level Estimated
01:01AM 34.0341 119.9405 157° South  Level Estimated
01:02AM 33.9449 119.9859 157° South  Level Estimated
01:03AM 33.8556 120.0312 157° South  Level Estimated
01:04AM 33.7664 120.0765 157° South  Level Estimated
01:05AM 33.6771 120.1216 157° South  Level Estimated
01:06AM 33.5878 120.1667 157° South  Level Estimated
01:07AM 33.4984 120.2116 157° South  Level Estimated
01:08AM 33.4091 120.2565 157° South  Level Estimated
01:09AM 33.3197 120.3013 157° South  Level Estimated
01:10AM 33.2304 120.3459 157° South  Level Estimated
01:11AM 33.1410 120.3905 157° South  Level Estimated
01:12AM 33.0516 120.4350 157° South  Level Estimated
01:13AM 32.9621 120.4794 157° South  Level Estimated
01:14AM 32.8727 120.5238 157° South  Level Estimated
01:15AM 32.7832 120.5680 157° South  Level Estimated
01:16AM 32.6938 120.6121 157° South  Level Estimated
01:17AM 32.6043 120.6562 157° South  Level Estimated
01:18AM 32.5148 120.7001 158° South  Level Estimated
01:19AM 32.4253 120.7440 158° South  Level Estimated
01:20AM 32.3357 120.7878 158° South  Level Estimated
01:21AM 32.2462 120.8315 158° South  Level Estimated
01:22AM 32.1566 120.8751 158° South  Level Estimated
01:23AM 32.0671 120.9187 158° South  Level Estimated
01:24AM 31.9775 120.9621 158° South  Level Estimated
01:25AM 31.8879 121.0055 158° South  Level Estimated
01:26AM 31.7983 121.0487 158° South  Level Estimated
01:27AM 31.7086 121.0919 158° South  Level Estimated
01:28AM 31.6190 121.1350 158° South  Level Estimated
01:29AM 31.5293 121.1781 158° South  Level Estimated